Kenesaw, Nebraska
Current Conditions -  °F | °C
As of 8:53 AM on Friday 28 Nov 2014 (Local Time) from KHSI Reporting Station
Clear Clear  
Wind Chill: 31°   Ceiling: Unl
Heat Index: 35°   Visibility: 10mi
Dew Point: 26°   Wind: 5mph
Humidity: 70%   Direction: 230°SW
Pressure: 29.82"   Gusts: NA
Location:  40.62°N, 98.66°W
Report Text: KHSI 281453Z AUTO 23004KT 10SM CLR 02/M03 A2982 RMK AO2 SLP116 T00171033 56012
Loading
Personal Weather Stations






























Interactive Weather Map New forecast layout! Learn more

10-Day Weather Forecast

Advertisements
Track Severe Weather on mobile